KHGR/HGR METAR and TAF weather

Enter ICAO airport designator
Station Type Date Time Source
KHGR METAR 2020/11/27 13:53 UTC NOAA

KHGR 271353Z 17003KT 10SM OVC040 11/07 A3012 RMK AO2 SLP210 T01110067


Station Type Date Time Source
KHGR Decoded METAR 2020/11/27 13:53 UTC NOAA

HAGERSTOWN REGIONAL AIRPORT, MD, United States (KHGR) 39-42N 077-44W 224M
Nov 27, 2020 - 08:53 AM EST / 2020.11.27 1353 UTC
Wind: from the S (170 degrees) at 3 MPH (3 KT):0
Visibility: 10 mile(s):0
Sky conditions: overcast
Temperature: 52.0 F (11.1 C)
Dew Point: 44.1 F (6.7 C)
Relative Humidity: 74%
Pressure (altimeter): 30.12 in. Hg (1019 hPa)
ob: KHGR 271353Z 17003KT 10SM OVC040 11/07 A3012 RMK AO2 SLP210 T01110067
cycle: 14

Station Type Date Time Source
KHGR TAF UTC NOAA

Error!

Example: see airport list